createdAt,value
2018-12-10T00:00:04.972Z,969.71
2018-12-10T00:01:05.354Z,969.77
2018-12-10T00:02:05.456Z,969.88
2018-12-10T00:03:04.629Z,969.80
2018-12-10T00:04:04.987Z,969.85
2018-12-10T00:05:05.178Z,969.85
2018-12-10T00:06:05.323Z,969.99
2018-12-10T00:07:10.387Z,970.04
2018-12-10T00:08:04.975Z,970.18
2018-12-10T00:09:04.810Z,970.07
2018-12-10T00:10:05.063Z,970.10
2018-12-10T00:11:04.550Z,970.16
2018-12-10T00:12:04.754Z,970.30
2018-12-10T00:13:05.273Z,969.99
2018-12-10T00:14:04.590Z,970.19
2018-12-10T00:15:04.782Z,970.16
2018-12-10T00:16:05.415Z,970.16
2018-12-10T00:17:04.918Z,970.13
2018-12-10T00:18:05.166Z,970.10
2018-12-10T00:19:05.135Z,970.27
2018-12-10T00:20:05.380Z,970.19
2018-12-10T00:21:05.478Z,970.08
2018-12-10T00:22:04.516Z,970.11
2018-12-10T00:23:05.158Z,970.08
2018-12-10T00:24:05.310Z,970.14
2018-12-10T00:25:04.611Z,970.08
2018-12-10T00:26:04.684Z,970.13
2018-12-10T00:27:04.867Z,970.08
2018-12-10T00:28:10.599Z,970.11
2018-12-10T00:29:05.065Z,970.19
2018-12-10T00:30:05.248Z,970.19
2018-12-10T00:31:05.259Z,970.22
2018-12-10T00:32:05.440Z,970.25
2018-12-10T00:33:04.512Z,970.25
2018-12-10T00:34:04.785Z,970.08
2018-12-10T00:35:05.283Z,970.28
2018-12-10T00:36:04.732Z,970.14
2018-12-10T00:37:04.953Z,970.28
2018-12-10T00:38:05.433Z,970.37
2018-12-10T00:39:04.642Z,970.26
2018-12-10T00:40:05.153Z,970.29
2018-12-10T00:41:04.764Z,970.17
2018-12-10T00:42:04.689Z,970.42
2018-12-10T00:43:04.932Z,970.42
2018-12-10T00:44:05.471Z,970.32
2018-12-10T00:45:05.066Z,970.40
2018-12-10T00:46:05.086Z,970.48
2018-12-10T00:47:05.147Z,970.51
2018-12-10T00:48:05.550Z,970.48
2018-12-10T00:49:04.614Z,970.46
2018-12-10T00:50:04.753Z,970.65
2018-12-10T00:51:05.243Z,970.54
2018-12-10T00:52:05.331Z,970.63
2018-12-10T00:53:04.756Z,970.63
2018-12-10T00:54:05.258Z,970.41
2018-12-10T00:55:04.750Z,970.46
2018-12-10T00:56:04.877Z,970.57
2018-12-10T00:57:05.019Z,970.60
2018-12-10T00:58:04.655Z,970.46
2018-12-10T00:59:04.779Z,970.60
2018-12-10T01:00:05.282Z,970.55
2018-12-10T01:01:05.376Z,970.74
2018-12-10T01:02:04.534Z,970.83
2018-12-10T01:03:05.137Z,970.66
2018-12-10T01:04:04.572Z,970.69
2018-12-10T01:05:04.696Z,970.80
2018-12-10T01:06:05.015Z,970.66
2018-12-10T01:07:05.095Z,970.74
2018-12-10T01:08:04.644Z,970.71
2018-12-10T01:09:04.990Z,970.77
2018-12-10T01:10:05.029Z,970.74
2018-12-10T01:11:05.103Z,970.85
2018-12-10T01:12:05.476Z,970.77
2018-12-10T01:13:04.605Z,970.94
2018-12-10T01:14:04.764Z,970.80
2018-12-10T01:15:04.899Z,970.85
2018-12-10T01:16:05.550Z,970.85
2018-12-10T01:17:04.604Z,970.91
2018-12-10T01:18:04.737Z,971.02
2018-12-10T01:19:05.622Z,970.97
2018-12-10T01:20:04.580Z,971.08
2018-12-10T01:21:05.160Z,971.08
2018-12-10T01:22:05.202Z,971.00
2018-12-10T01:23:05.396Z,970.92
2018-12-10T01:24:04.628Z,971.08
2018-12-10T01:25:04.850Z,971.09
2018-12-10T01:26:05.499Z,971.14
2018-12-10T01:27:04.609Z,970.98
2018-12-10T01:28:10.218Z,971.14
2018-12-10T01:29:04.601Z,971.20
2018-12-10T01:30:05.310Z,971.03
2018-12-10T01:31:05.432Z,971.15
2018-12-10T01:32:04.644Z,971.12
2018-12-10T01:33:04.648Z,971.09
2018-12-10T01:34:04.785Z,971.12
2018-12-10T01:35:04.913Z,971.15
2018-12-10T01:36:04.660Z,971.15
2018-12-10T01:37:04.671Z,971.23
2018-12-10T01:38:04.973Z,971.29
2018-12-10T01:39:05.186Z,971.32
2018-12-10T01:40:05.316Z,971.35
2018-12-10T01:41:04.688Z,971.41
2018-12-10T01:42:04.821Z,971.35
2018-12-10T01:43:05.201Z,971.30
2018-12-10T01:44:05.454Z,971.35
2018-12-10T01:45:05.456Z,971.33
2018-12-10T01:46:04.564Z,971.27
2018-12-10T01:47:04.731Z,971.49
2018-12-10T01:48:05.063Z,971.41
2018-12-10T01:49:04.735Z,971.52
2018-12-10T01:50:04.963Z,971.41
2018-12-10T01:51:05.530Z,971.42
2018-12-10T01:52:04.503Z,971.44
2018-12-10T01:53:04.562Z,971.39
2018-12-10T01:54:04.696Z,971.42
2018-12-10T01:55:04.751Z,971.42
2018-12-10T01:56:05.012Z,971.36
2018-12-10T01:57:05.139Z,971.42
2018-12-10T01:58:05.373Z,971.50
2018-12-10T01:59:05.520Z,971.47
2018-12-10T02:00:05.571Z,971.36
2018-12-10T02:01:04.550Z,971.56
2018-12-10T02:02:04.685Z,971.50
2018-12-10T02:03:04.728Z,971.61
2018-12-10T02:04:04.875Z,971.56
2018-12-10T02:05:05.220Z,971.59
2018-12-10T02:06:05.451Z,971.59
2018-12-10T02:07:10.130Z,971.62
2018-12-10T02:08:04.606Z,971.75
2018-12-10T02:09:04.593Z,971.70
2018-12-10T02:10:04.849Z,971.61
2018-12-10T02:11:04.980Z,971.50
2018-12-10T02:12:05.121Z,971.50
2018-12-10T02:13:04.658Z,971.45
2018-12-10T02:14:04.914Z,971.47
2018-12-10T02:15:04.844Z,971.56
2018-12-10T02:16:04.817Z,971.53
2018-12-10T02:17:05.412Z,971.45
2018-12-10T02:18:04.718Z,971.56
2018-12-10T02:19:04.586Z,971.56
2018-12-10T02:20:04.740Z,971.39
2018-12-10T02:21:04.809Z,971.42
2018-12-10T02:22:05.365Z,971.61
2018-12-10T02:23:04.722Z,971.50
2018-12-10T02:24:04.813Z,971.62
2018-12-10T02:25:05.238Z,971.56
2018-12-10T02:26:05.048Z,971.70
2018-12-10T02:27:05.459Z,971.59
2018-12-10T02:28:10.494Z,971.59
2018-12-10T02:29:04.919Z,971.59
2018-12-10T02:30:05.115Z,971.65
2018-12-10T02:31:04.717Z,971.59
2018-12-10T02:32:05.311Z,971.76
2018-12-10T02:33:05.315Z,971.59
2018-12-10T02:34:04.541Z,971.65
2018-12-10T02:35:04.979Z,971.70
2018-12-10T02:36:05.328Z,971.67
2018-12-10T02:37:04.526Z,971.64
2018-12-10T02:38:05.232Z,971.81
2018-12-10T02:39:05.375Z,971.64
2018-12-10T02:40:05.436Z,971.48
2018-12-10T02:41:05.232Z,971.70
2018-12-10T02:42:04.584Z,971.70
2018-12-10T02:43:04.880Z,971.59
2018-12-10T02:44:05.016Z,971.70
2018-12-10T02:45:05.449Z,971.76
2018-12-10T02:46:05.217Z,971.73
2018-12-10T02:47:04.526Z,971.67
2018-12-10T02:48:04.615Z,971.81
2018-12-10T02:49:05.244Z,971.59
2018-12-10T02:50:04.842Z,971.73
2018-12-10T02:51:04.897Z,971.78
2018-12-10T02:52:04.896Z,971.73
2018-12-10T02:53:05.067Z,971.89
2018-12-10T02:54:05.170Z,971.83
2018-12-10T02:55:05.234Z,971.81
2018-12-10T02:56:05.383Z,972.00
2018-12-10T02:57:05.469Z,971.94
2018-12-10T02:58:05.589Z,972.05
2018-12-10T02:59:04.980Z,971.89
2018-12-10T03:00:05.059Z,971.91
2018-12-10T03:01:05.295Z,971.89
2018-12-10T03:02:04.932Z,971.97
2018-12-10T03:03:05.494Z,971.86
2018-12-10T03:04:04.806Z,971.91
2018-12-10T03:05:04.869Z,971.97
2018-12-10T03:06:04.789Z,972.03
2018-12-10T03:07:04.924Z,972.00
2018-12-10T03:08:04.548Z,971.91
2018-12-10T03:09:04.818Z,972.03
2018-12-10T03:10:04.870Z,971.81
2018-12-10T03:11:05.177Z,971.89
2018-12-10T03:12:05.215Z,972.16
2018-12-10T03:13:04.894Z,971.94
2018-12-10T03:14:04.962Z,971.89
2018-12-10T03:15:05.426Z,971.89
2018-12-10T03:16:04.689Z,972.08
2018-12-10T03:17:04.922Z,972.05
2018-12-10T03:18:04.945Z,972.08
2018-12-10T03:19:05.512Z,971.97
2018-12-10T03:20:05.417Z,972.05
2018-12-10T03:21:04.589Z,972.06
2018-12-10T03:22:05.377Z,972.17
2018-12-10T03:23:04.711Z,972.08
2018-12-10T03:24:04.829Z,972.11
2018-12-10T03:25:04.930Z,972.17
2018-12-10T03:26:05.604Z,972.17
2018-12-10T03:27:05.059Z,972.06
2018-12-10T03:28:10.440Z,972.20
2018-12-10T03:29:04.925Z,972.20
2018-12-10T03:30:05.095Z,972.22
2018-12-10T03:31:05.410Z,972.08
2018-12-10T03:32:05.554Z,972.08
2018-12-10T03:33:04.488Z,972.08
2018-12-10T03:34:04.623Z,971.97
2018-12-10T03:35:04.703Z,972.14
2018-12-10T03:36:04.868Z,972.20
2018-12-10T03:37:05.268Z,972.17
2018-12-10T03:38:05.395Z,972.05
2018-12-10T03:39:05.058Z,972.22
2018-12-10T03:40:04.939Z,972.28
2018-12-10T03:41:05.080Z,972.17
2018-12-10T03:42:05.150Z,972.19
2018-12-10T03:43:05.308Z,972.19
2018-12-10T03:44:04.913Z,972.19
2018-12-10T03:45:05.065Z,972.14
2018-12-10T03:46:05.096Z,972.17
2018-12-10T03:47:04.527Z,972.05
2018-12-10T03:48:05.008Z,972.28
2018-12-10T03:49:10.231Z,972.19
2018-12-10T03:50:04.641Z,972.36
2018-12-10T03:51:04.916Z,972.39
2018-12-10T03:52:05.364Z,972.52
2018-12-10T03:53:04.799Z,972.42
2018-12-10T03:54:05.211Z,972.52
2018-12-10T03:55:05.166Z,972.55
2018-12-10T03:56:04.567Z,972.60
2018-12-10T03:57:04.643Z,972.52
2018-12-10T03:58:04.689Z,972.69
2018-12-10T03:59:04.897Z,972.61
2018-12-10T04:00:04.937Z,972.61
2018-12-10T04:01:05.038Z,972.58
2018-12-10T04:02:04.589Z,972.66
2018-12-10T04:03:04.685Z,972.63
2018-12-10T04:04:04.598Z,972.66
2018-12-10T04:05:04.852Z,972.60
2018-12-10T04:06:05.012Z,972.58
2018-12-10T04:07:05.025Z,972.72
2018-12-10T04:08:05.263Z,972.72
2018-12-10T04:09:05.010Z,972.74
2018-12-10T04:10:05.293Z,972.80
2018-12-10T04:11:04.779Z,972.80
2018-12-10T04:12:05.283Z,972.77
2018-12-10T04:13:05.299Z,972.74
2018-12-10T04:14:05.400Z,972.83
2018-12-10T04:15:04.625Z,972.80
2018-12-10T04:16:04.702Z,972.77
2018-12-10T04:17:05.724Z,972.77
2018-12-10T04:18:04.677Z,972.72
2018-12-10T04:19:04.882Z,972.72
2018-12-10T04:20:04.861Z,972.63
2018-12-10T04:21:04.584Z,972.86
2018-12-10T04:22:04.929Z,972.74
2018-12-10T04:23:05.199Z,972.63
2018-12-10T04:24:05.201Z,972.71
2018-12-10T04:25:05.322Z,972.60
2018-12-10T04:26:05.348Z,972.83
2018-12-10T04:27:05.533Z,972.69
2018-12-10T04:28:09.738Z,972.71
2018-12-10T04:29:05.155Z,972.74
2018-12-10T04:30:04.932Z,972.80
2018-12-10T04:31:04.885Z,972.74
2018-12-10T04:32:05.010Z,972.71
2018-12-10T04:33:05.269Z,972.80
2018-12-10T04:34:04.907Z,972.83
2018-12-10T04:35:05.079Z,972.74
2018-12-10T04:36:05.136Z,972.97
2018-12-10T04:37:05.349Z,972.94
2018-12-10T04:38:05.443Z,972.88
2018-12-10T04:39:04.815Z,973.05
2018-12-10T04:40:05.064Z,973.02
2018-12-10T04:41:04.544Z,973.05
2018-12-10T04:42:04.640Z,973.05
2018-12-10T04:43:04.829Z,973.11
2018-12-10T04:44:04.773Z,972.97
2018-12-10T04:45:05.051Z,973.02
2018-12-10T04:46:05.513Z,973.02
2018-12-10T04:47:04.533Z,973.14
2018-12-10T04:48:05.246Z,972.94
2018-12-10T04:49:05.238Z,973.02
2018-12-10T04:50:05.516Z,973.02
2018-12-10T04:51:04.884Z,973.11
2018-12-10T04:52:05.224Z,973.16
2018-12-10T04:53:05.390Z,973.22
2018-12-10T04:54:04.883Z,973.14
2018-12-10T04:55:04.919Z,973.14
2018-12-10T04:56:05.266Z,973.14
2018-12-10T04:57:04.612Z,973.05
2018-12-10T04:58:04.948Z,973.05
2018-12-10T04:59:04.969Z,973.13
2018-12-10T05:00:05.271Z,973.16
2018-12-10T05:01:05.330Z,973.33
2018-12-10T05:02:05.355Z,973.25
2018-12-10T05:03:04.753Z,973.25
2018-12-10T05:04:05.062Z,973.11
2018-12-10T05:05:05.207Z,973.25
2018-12-10T05:06:05.379Z,973.33
2018-12-10T05:07:04.945Z,973.33
2018-12-10T05:08:05.881Z,973.22
2018-12-10T05:09:04.591Z,973.19
2018-12-10T05:10:04.740Z,973.22
2018-12-10T05:11:04.816Z,973.36
2018-12-10T05:12:04.581Z,973.30
2018-12-10T05:13:04.611Z,973.33
2018-12-10T05:14:04.647Z,973.16
2018-12-10T05:15:04.772Z,973.22
2018-12-10T05:16:04.990Z,973.22
2018-12-10T05:17:05.158Z,973.27
2018-12-10T05:18:04.931Z,973.25
2018-12-10T05:19:04.920Z,973.30
2018-12-10T05:20:04.966Z,973.36
2018-12-10T05:21:05.470Z,973.47
2018-12-10T05:22:04.698Z,973.42
2018-12-10T05:23:05.114Z,973.39
2018-12-10T05:24:05.213Z,973.39
2018-12-10T05:25:05.010Z,973.39
2018-12-10T05:26:04.531Z,973.42
2018-12-10T05:27:04.851Z,973.53
2018-12-10T05:28:10.129Z,973.47
2018-12-10T05:29:04.791Z,973.57
2018-12-10T05:30:04.702Z,973.53
2018-12-10T05:31:05.189Z,973.60
2018-12-10T05:32:05.257Z,973.47
2018-12-10T05:33:04.815Z,973.47
2018-12-10T05:34:04.777Z,973.53
2018-12-10T05:35:05.457Z,973.57
2018-12-10T05:36:05.420Z,973.44
2018-12-10T05:37:04.837Z,973.63
2018-12-10T05:38:05.360Z,973.69
2018-12-10T05:39:04.714Z,973.60
2018-12-10T05:40:05.121Z,973.74
2018-12-10T05:41:05.436Z,973.63
2018-12-10T05:42:04.905Z,973.60
2018-12-10T05:43:05.106Z,973.66
2018-12-10T05:44:05.192Z,973.66
2018-12-10T05:45:05.760Z,973.77
2018-12-10T05:46:05.016Z,973.74
2018-12-10T05:47:05.333Z,973.66
2018-12-10T05:48:10.307Z,973.77
2018-12-10T05:49:04.675Z,973.94
2018-12-10T05:50:04.808Z,973.69
2018-12-10T05:51:05.571Z,973.74
2018-12-10T05:52:04.894Z,973.94
2018-12-10T05:53:04.736Z,973.82
2018-12-10T05:54:04.656Z,974.02
2018-12-10T05:55:04.849Z,973.96
2018-12-10T05:56:05.218Z,973.96
2018-12-10T05:57:05.553Z,973.77
2018-12-10T05:58:04.600Z,973.83
2018-12-10T05:59:04.638Z,973.77
2018-12-10T06:00:04.705Z,973.77
2018-12-10T06:01:04.740Z,973.85
2018-12-10T06:02:04.790Z,973.88
2018-12-10T06:03:05.014Z,973.86
2018-12-10T06:04:05.209Z,973.97
2018-12-10T06:05:05.897Z,973.83
2018-12-10T06:06:04.518Z,973.83
2018-12-10T06:07:04.544Z,973.94
2018-12-10T06:08:04.657Z,973.91
2018-12-10T06:09:05.303Z,973.80
2018-12-10T06:10:05.359Z,973.74
2018-12-10T06:11:04.532Z,973.80
2018-12-10T06:12:04.564Z,973.72
2018-12-10T06:13:04.859Z,973.77
2018-12-10T06:14:04.915Z,973.72
2018-12-10T06:15:05.349Z,973.91
2018-12-10T06:16:04.812Z,973.74
2018-12-10T06:17:04.857Z,973.94
2018-12-10T06:18:04.916Z,973.80
2018-12-10T06:19:05.112Z,973.94
2018-12-10T06:20:05.571Z,973.91
2018-12-10T06:21:05.772Z,974.05
2018-12-10T06:22:04.778Z,974.14
2018-12-10T06:23:04.999Z,973.91
2018-12-10T06:24:04.684Z,973.86
2018-12-10T06:25:04.719Z,974.14
2018-12-10T06:26:04.972Z,974.17
2018-12-10T06:27:05.039Z,974.17
2018-12-10T06:28:05.007Z,974.17
2018-12-10T06:29:04.529Z,974.25
2018-12-10T06:30:05.223Z,974.22
2018-12-10T06:31:05.191Z,974.36
2018-12-10T06:32:05.147Z,974.36
2018-12-10T06:33:05.410Z,974.28
2018-12-10T06:34:04.881Z,974.22
2018-12-10T06:35:05.330Z,974.28
2018-12-10T06:36:05.257Z,974.33
2018-12-10T06:37:05.568Z,974.39
2018-12-10T06:38:05.347Z,974.31
2018-12-10T06:39:05.458Z,974.36
2018-12-10T06:40:09.616Z,974.53
2018-12-10T06:41:05.117Z,974.36
2018-12-10T06:42:05.198Z,974.39
2018-12-10T06:43:04.471Z,974.42
2018-12-10T06:44:04.712Z,974.39
2018-12-10T06:45:05.024Z,974.42
2018-12-10T06:46:04.624Z,974.48
2018-12-10T06:47:05.077Z,974.45
2018-12-10T06:48:05.377Z,974.42
2018-12-10T06:49:05.022Z,974.56
2018-12-10T06:50:05.130Z,974.48
2018-12-10T06:51:05.249Z,974.48
2018-12-10T06:52:05.416Z,974.50
2018-12-10T06:53:05.439Z,974.50
2018-12-10T06:54:05.501Z,974.59
2018-12-10T06:55:05.060Z,974.48
2018-12-10T06:56:05.318Z,974.45
2018-12-10T06:57:05.287Z,974.53
2018-12-10T06:58:05.270Z,974.59
2018-12-10T06:59:04.945Z,974.64
2018-12-10T07:00:10.133Z,974.59
2018-12-10T07:01:04.617Z,974.48
2018-12-10T07:02:04.941Z,974.50
2018-12-10T07:03:04.946Z,974.50
2018-12-10T07:04:05.239Z,974.53
2018-12-10T07:05:05.401Z,974.62
2018-12-10T07:06:04.840Z,974.53
2018-12-10T07:07:05.303Z,974.70
2018-12-10T07:08:05.131Z,974.64
2018-12-10T07:09:05.314Z,974.78
2018-12-10T07:10:04.607Z,974.73
2018-12-10T07:11:04.822Z,974.84
2018-12-10T07:12:04.558Z,974.79
2018-12-10T07:13:04.679Z,974.81
2018-12-10T07:14:04.759Z,974.90
2018-12-10T07:15:04.880Z,974.81
2018-12-10T07:16:05.067Z,974.84
2018-12-10T07:17:05.214Z,974.73
2018-12-10T07:18:05.309Z,974.76
2018-12-10T07:19:05.485Z,975.03
2018-12-10T07:20:04.563Z,974.87
2018-12-10T07:21:05.065Z,974.73
2018-12-10T07:22:07.054Z,975.09
2018-12-10T07:23:04.874Z,974.85
2018-12-10T07:24:04.916Z,974.87
2018-12-10T07:25:04.980Z,974.85
2018-12-10T07:26:05.094Z,974.95
2018-12-10T07:27:05.447Z,975.01
2018-12-10T07:28:05.527Z,974.93
2018-12-10T07:29:04.608Z,975.01
2018-12-10T07:30:04.537Z,974.90
2018-12-10T07:31:04.967Z,975.01
2018-12-10T07:32:05.253Z,974.90
2018-12-10T07:33:05.454Z,975.03
2018-12-10T07:34:04.618Z,975.01
2018-12-10T07:35:04.780Z,975.12
2018-12-10T07:36:05.296Z,975.01
2018-12-10T07:37:04.660Z,974.98
2018-12-10T07:38:05.417Z,975.15
2018-12-10T07:39:04.962Z,975.01
2018-12-10T07:40:07.099Z,974.98
2018-12-10T07:41:04.757Z,975.32
2018-12-10T07:42:04.996Z,975.15
2018-12-10T07:43:05.136Z,975.23
2018-12-10T07:44:05.370Z,975.15
2018-12-10T07:45:04.606Z,975.26
2018-12-10T07:46:04.954Z,975.39
2018-12-10T07:47:05.109Z,975.26
2018-12-10T07:48:09.720Z,975.39
2018-12-10T07:49:05.284Z,975.23
2018-12-10T07:50:05.331Z,975.26
2018-12-10T07:51:04.617Z,975.42
2018-12-10T07:52:04.976Z,975.42
2018-12-10T07:53:05.520Z,975.48
2018-12-10T07:54:04.871Z,975.39
2018-12-10T07:55:05.016Z,975.39
2018-12-10T07:56:05.369Z,975.50
2018-12-10T07:57:05.506Z,975.45
2018-12-10T07:58:05.118Z,975.48
2018-12-10T07:59:04.642Z,975.51
2018-12-10T08:00:04.643Z,975.53
2018-12-10T08:01:04.829Z,975.59
2018-12-10T08:02:05.084Z,975.53
2018-12-10T08:03:05.051Z,975.59
2018-12-10T08:04:05.225Z,975.51
2018-12-10T08:05:12.690Z,975.62
2018-12-10T08:06:05.452Z,975.56
2018-12-10T08:07:04.749Z,975.76
2018-12-10T08:08:05.346Z,975.64
2018-12-10T08:09:04.823Z,975.59
2018-12-10T08:10:05.053Z,975.48
2018-12-10T08:11:04.757Z,975.56
2018-12-10T08:12:04.683Z,975.53
2018-12-10T08:13:04.919Z,975.65
2018-12-10T08:14:05.122Z,975.70
2018-12-10T08:15:05.514Z,975.42
2018-12-10T08:16:04.797Z,975.53
2018-12-10T08:17:05.242Z,975.48
2018-12-10T08:18:05.389Z,975.62
2018-12-10T08:19:05.312Z,975.67
2018-12-10T08:20:05.398Z,975.64
2018-12-10T08:21:05.013Z,975.73
2018-12-10T08:22:05.366Z,975.81
2018-12-10T08:23:04.916Z,975.59
2018-12-10T08:24:04.876Z,975.73
2018-12-10T08:25:04.700Z,975.70
2018-12-10T08:26:05.388Z,975.64
2018-12-10T08:27:09.921Z,975.70
2018-12-10T08:28:10.382Z,975.73
2018-12-10T08:30:05.407Z,975.78
2018-12-10T08:31:04.765Z,975.67
2018-12-10T08:31:07.579Z,975.67
2018-12-10T08:32:05.124Z,975.59
2018-12-10T08:33:04.795Z,975.61
2018-12-10T08:34:05.133Z,975.64
2018-12-10T08:35:05.614Z,975.67
2018-12-10T08:36:04.626Z,975.73
2018-12-10T08:37:04.686Z,975.67
2018-12-10T08:38:04.699Z,975.75
2018-12-10T08:39:05.290Z,975.73
2018-12-10T08:40:04.934Z,975.73
2018-12-10T08:41:05.024Z,975.61
2018-12-10T08:42:04.483Z,975.75
2018-12-10T08:43:04.775Z,975.75
2018-12-10T08:44:04.853Z,975.67
2018-12-10T08:45:04.670Z,975.81
2018-12-10T08:46:04.754Z,975.70
2018-12-10T08:47:04.805Z,975.87
2018-12-10T08:48:04.898Z,975.78
2018-12-10T08:49:04.891Z,975.84
2018-12-10T08:50:04.621Z,975.78
2018-12-10T08:51:04.863Z,975.81
2018-12-10T08:52:04.968Z,975.67
2018-12-10T08:53:05.033Z,975.72
2018-12-10T08:54:05.367Z,975.84
2018-12-10T08:55:04.581Z,975.89
2018-12-10T08:56:05.248Z,975.81
2018-12-10T08:57:05.341Z,975.72
2018-12-10T08:58:04.587Z,975.86
2018-12-10T08:59:04.618Z,975.92
2018-12-10T09:00:04.702Z,975.80
2018-12-10T09:01:04.753Z,975.86
2018-12-10T09:02:04.838Z,975.94
2018-12-10T09:03:05.271Z,975.86
2018-12-10T09:04:04.726Z,975.75
2018-12-10T09:05:04.803Z,975.92
2018-12-10T09:06:04.818Z,975.94
2018-12-10T09:07:05.003Z,975.97
2018-12-10T09:08:05.393Z,975.89
2018-12-10T09:09:04.848Z,975.80
2018-12-10T09:10:05.231Z,975.86
2018-12-10T09:11:05.417Z,975.80
2018-12-10T09:12:05.391Z,976.03
2018-12-10T09:13:05.193Z,975.75
2018-12-10T09:14:04.928Z,975.89
2018-12-10T09:15:05.093Z,975.89
2018-12-10T09:16:05.208Z,976.00
2018-12-10T09:17:05.393Z,976.06
2018-12-10T09:18:05.465Z,976.03
2018-12-10T09:19:04.623Z,975.94
2018-12-10T09:20:04.664Z,976.08
2018-12-10T09:21:04.728Z,975.94
2018-12-10T09:22:05.456Z,976.06
2018-12-10T09:23:04.796Z,976.08
2018-12-10T09:24:04.904Z,975.97
2018-12-10T09:25:05.246Z,975.89
2018-12-10T09:26:05.448Z,975.94
2018-12-10T09:27:04.671Z,975.94
2018-12-10T09:28:09.838Z,975.92
2018-12-10T09:29:05.265Z,976.06
2018-12-10T09:30:04.705Z,976.03
2018-12-10T09:31:04.730Z,976.03
2018-12-10T09:32:05.056Z,975.91
2018-12-10T09:33:05.046Z,975.97
2018-12-10T09:34:04.854Z,976.19
2018-12-10T09:35:05.226Z,976.05
2018-12-10T09:36:05.419Z,976.02
2018-12-10T09:37:04.603Z,976.16
2018-12-10T09:38:05.110Z,976.19
2018-12-10T09:39:04.718Z,976.05
2018-12-10T09:40:05.382Z,976.13
2018-12-10T09:41:04.835Z,976.27
2018-12-10T09:42:04.953Z,976.21
2018-12-10T09:43:05.143Z,976.16
2018-12-10T09:44:04.857Z,976.19
2018-12-10T09:45:05.429Z,976.27
2018-12-10T09:46:05.373Z,976.27
2018-12-10T09:47:05.208Z,976.41
2018-12-10T09:48:09.708Z,976.21
2018-12-10T09:49:04.745Z,976.21
2018-12-10T09:50:05.053Z,976.21
2018-12-10T09:51:05.415Z,976.16
2018-12-10T09:52:04.984Z,976.24
2018-12-10T09:53:04.589Z,976.13
2018-12-10T09:54:04.628Z,976.24
2018-12-10T09:55:04.982Z,976.30
2018-12-10T09:56:05.283Z,976.10
2018-12-10T09:57:05.208Z,976.07
2018-12-10T09:58:04.967Z,976.16
2018-12-10T09:59:04.539Z,976.24
2018-12-10T10:00:04.746Z,976.33
2018-12-10T10:01:04.800Z,976.21
2018-12-10T10:02:12.686Z,976.38
2018-12-10T10:03:05.332Z,976.32
2018-12-10T10:04:04.919Z,976.30
2018-12-10T10:05:04.921Z,976.21
2018-12-10T10:06:05.341Z,976.32
2018-12-10T10:07:05.351Z,976.35
2018-12-10T10:08:04.971Z,976.16
2018-12-10T10:09:04.946Z,976.21
2018-12-10T10:10:05.136Z,976.18
2018-12-10T10:11:05.586Z,976.41
2018-12-10T10:12:04.909Z,976.21
2018-12-10T10:13:05.125Z,976.18
2018-12-10T10:14:05.192Z,976.24
2018-12-10T10:15:05.350Z,976.29
2018-12-10T10:16:05.399Z,976.21
2018-12-10T10:17:05.085Z,976.18
2018-12-10T10:18:05.306Z,976.21
2018-12-10T10:19:05.321Z,976.32
2018-12-10T10:20:04.520Z,976.20
2018-12-10T10:21:04.964Z,976.32
2018-12-10T10:22:05.484Z,976.26
2018-12-10T10:23:05.148Z,976.20
2018-12-10T10:24:05.071Z,976.18
2018-12-10T10:25:05.410Z,976.17
2018-12-10T10:26:04.550Z,976.09
2018-12-10T10:27:05.253Z,976.34
2018-12-10T10:28:10.325Z,976.20
2018-12-10T10:29:04.841Z,976.20
2018-12-10T10:30:05.026Z,976.20
2018-12-10T10:31:05.181Z,976.20
2018-12-10T10:32:04.761Z,976.23
2018-12-10T10:33:05.230Z,976.17
2018-12-10T10:34:04.645Z,976.12
2018-12-10T10:35:04.721Z,976.15
2018-12-10T10:36:04.941Z,976.23
2018-12-10T10:37:05.209Z,976.23
2018-12-10T10:38:05.205Z,976.03
2018-12-10T10:39:05.430Z,976.09
2018-12-10T10:40:05.214Z,976.31
2018-12-10T10:41:05.054Z,976.23
2018-12-10T10:42:05.192Z,976.20
2018-12-10T10:43:05.389Z,976.20
2018-12-10T10:44:05.474Z,976.29
2018-12-10T10:45:04.600Z,976.20
2018-12-10T10:46:04.964Z,976.34
2018-12-10T10:47:05.325Z,976.29
2018-12-10T10:48:04.572Z,976.29
2018-12-10T10:49:04.657Z,976.09
2018-12-10T10:50:04.829Z,976.37
2018-12-10T10:51:04.895Z,976.17
2018-12-10T10:52:05.175Z,976.20
2018-12-10T10:53:05.512Z,976.26
2018-12-10T10:54:04.600Z,976.14
2018-12-10T10:55:04.934Z,976.23
2018-12-10T10:56:05.031Z,976.17
2018-12-10T10:57:04.715Z,976.14
2018-12-10T10:58:04.862Z,976.28
2018-12-10T10:59:05.223Z,976.28
2018-12-10T11:00:05.397Z,976.26
2018-12-10T11:01:04.507Z,976.12
2018-12-10T11:02:04.645Z,976.23
2018-12-10T11:03:04.842Z,976.17
2018-12-10T11:04:05.178Z,976.26
2018-12-10T11:05:05.417Z,976.26
2018-12-10T11:06:04.655Z,976.06
2018-12-10T11:07:04.768Z,976.23
2018-12-10T11:08:04.951Z,976.17
2018-12-10T11:09:05.438Z,976.17
2018-12-10T11:10:04.668Z,975.97
2018-12-10T11:11:04.727Z,976.22
2018-12-10T11:12:05.467Z,976.06
2018-12-10T11:13:05.593Z,976.06
2018-12-10T11:14:04.943Z,976.11
2018-12-10T11:15:05.235Z,976.11
2018-12-10T11:16:05.253Z,975.97
2018-12-10T11:17:05.467Z,976.16
2018-12-10T11:18:04.605Z,976.00
2018-12-10T11:19:04.653Z,976.33
2018-12-10T11:20:04.633Z,976.16
2018-12-10T11:21:04.852Z,976.22
2018-12-10T11:22:05.051Z,976.08
2018-12-10T11:23:05.130Z,976.22
2018-12-10T11:24:04.861Z,976.08
2018-12-10T11:25:05.341Z,976.25
2018-12-10T11:26:04.800Z,976.22
2018-12-10T11:27:05.384Z,976.19
2018-12-10T11:28:10.288Z,976.02
2018-12-10T11:29:04.839Z,976.08
2018-12-10T11:30:05.351Z,976.11
2018-12-10T11:31:05.357Z,975.99
2018-12-10T11:32:04.580Z,975.88
2018-12-10T11:33:04.963Z,975.91
2018-12-10T11:34:05.294Z,975.96
2018-12-10T11:35:04.578Z,976.02
2018-12-10T11:36:05.014Z,975.77
2018-12-10T11:37:05.449Z,975.94
2018-12-10T11:38:04.845Z,975.88
2018-12-10T11:39:04.998Z,975.96
2018-12-10T11:40:05.245Z,976.04
2018-12-10T11:41:05.348Z,975.79
2018-12-10T11:42:04.968Z,975.99
2018-12-10T11:43:05.328Z,975.99
2018-12-10T11:44:05.166Z,976.01
2018-12-10T11:45:05.420Z,975.99
2018-12-10T11:46:05.179Z,975.87
2018-12-10T11:47:12.869Z,975.90
2018-12-10T11:48:05.082Z,976.01
2018-12-10T11:49:04.729Z,976.01
2018-12-10T11:50:04.956Z,975.98
2018-12-10T11:51:04.489Z,975.84
2018-12-10T11:52:04.844Z,975.98
2018-12-10T11:53:05.126Z,975.70
2018-12-10T11:54:04.843Z,975.81
2018-12-10T11:55:05.142Z,975.84
2018-12-10T11:56:05.331Z,975.67
2018-12-10T11:57:04.994Z,975.70
2018-12-10T11:58:05.070Z,975.73
2018-12-10T11:59:05.081Z,975.67
2018-12-10T12:00:05.350Z,975.81
2018-12-10T12:01:04.780Z,975.81
2018-12-10T12:02:05.005Z,975.81
2018-12-10T12:03:05.198Z,975.70
2018-12-10T12:04:09.608Z,975.84
2018-12-10T12:05:05.128Z,975.65
2018-12-10T12:06:05.488Z,975.73
2018-12-10T12:07:04.780Z,975.73
2018-12-10T12:08:04.919Z,975.68
2018-12-10T12:09:05.337Z,975.70
2018-12-10T12:10:05.457Z,975.90
2018-12-10T12:11:04.573Z,975.65
2018-12-10T12:12:05.289Z,975.79
2018-12-10T12:13:05.386Z,975.62
2018-12-10T12:14:05.517Z,975.73
2018-12-10T12:15:05.060Z,975.65
2018-12-10T12:16:04.855Z,975.70
2018-12-10T12:17:05.004Z,975.56
2018-12-10T12:18:04.876Z,975.67
2018-12-10T12:19:11.866Z,975.62
2018-12-10T12:20:05.477Z,975.64
2018-12-10T12:21:04.636Z,975.59
2018-12-10T12:22:05.575Z,975.59
2018-12-10T12:23:05.472Z,975.59
2018-12-10T12:24:04.899Z,975.76
2018-12-10T12:25:04.823Z,975.78
2018-12-10T12:26:05.170Z,975.64
2018-12-10T12:27:05.403Z,975.70
2018-12-10T12:28:04.679Z,975.59